Time;durP1;ratioP1;P1;durP2;ratioP2;P2;SDS_P1;SDS_P2;PMS_P1;PMS_P2;Temp;Humidity;BMP_temperature;BMP_pressure;BME280_temperature;BME280_humidity;BME280_pressure;Samples;Min_cycle;Max_cycle;Signal;HPM_P1;HPM_P2
2022/08/30 00:03:17;;;;;;;1.80;1.60;;;;;;;;;;108789;1297;22439;-28
2022/08/30 00:05:43;;;;;;;4.30;1.80;;;;;;;;;;108734;1297;22409;-25
2022/08/30 00:08:09;;;;;;;2.90;2.00;;;;;;;;;;108739;1297;22535;-25
2022/08/30 00:10:34;;;;;;;3.90;2.10;;;;;;;;;;108766;1297;23110;-25
2022/08/30 00:13:00;;;;;;;4.70;2.50;;;;;;;;;;107748;1297;22524;-29
2022/08/30 00:15:26;;;;;;;3.00;2.20;;;;;;;;;;108610;1298;23401;-28
2022/08/30 00:17:51;;;;;;;6.00;2.30;;;;;;;;;;108721;1304;22404;-28
2022/08/30 00:20:18;;;;;;;3.60;2.30;;;;;;;;;;108758;1297;22450;-24
2022/08/30 00:22:44;;;;;;;3.40;2.00;;;;;;;;;;108741;1297;22048;-28
2022/08/30 00:25:10;;;;;;;3.80;2.10;;;;;;;;;;108748;1297;22530;-28
2022/08/30 00:27:36;;;;;;;2.70;2.10;;;;;;;;;;108742;1304;22545;-25
2022/08/30 00:30:01;;;;;;;3.70;2.30;;;;;;;;;;108736;1297;22541;-25
2022/08/30 00:32:27;;;;;;;3.50;2.60;;;;;;;;;;108735;1297;22459;-28
2022/08/30 00:34:52;;;;;;;2.00;1.80;;;;;;;;;;108739;1297;22456;-28
2022/08/30 00:37:18;;;;;;;11.00;3.00;;;;;;;;;;108752;1297;23186;-25
2022/08/30 00:39:43;;;;;;;4.60;2.10;;;;;;;;;;108722;1297;22398;-25
2022/08/30 00:42:10;;;;;;;5.10;2.90;;;;;;;;;;108671;1304;22413;-25
2022/08/30 00:44:35;;;;;;;9.90;6.60;;;;;;;;;;108267;1297;22514;-32
2022/08/30 00:47:01;;;;;;;3.00;2.50;;;;;;;;;;108754;1297;23111;-28
2022/08/30 00:49:28;;;;;;;5.90;2.60;;;;;;;;;;108725;1297;22514;-28
2022/08/30 00:51:53;;;;;;;7.60;2.60;;;;;;;;;;108757;1298;23271;-25
2022/08/30 00:54:19;;;;;;;3.40;2.70;;;;;;;;;;108750;1297;22416;-28
2022/08/30 00:56:45;;;;;;;7.90;2.70;;;;;;;;;;108696;1297;23022;-26
2022/08/30 00:59:10;;;;;;;4.30;3.40;;;;;;;;;;108534;1297;22547;-27
2022/08/30 01:01:36;;;;;;;4.20;3.60;;;;;;;;;;108199;1297;23383;-29
2022/08/30 01:04:03;;;;;;;2.20;1.90;;;;;;;;;;108746;1296;22400;-29
2022/08/30 01:06:29;;;;;;;3.60;2.00;;;;;;;;;;108736;1289;22413;-29
2022/08/30 01:08:54;;;;;;;4.30;1.90;;;;;;;;;;108750;1297;23002;-29
2022/08/30 01:11:20;;;;;;;3.10;2.50;;;;;;;;;;108753;1297;22425;-25
2022/08/30 01:13:46;;;;;;;4.00;2.90;;;;;;;;;;108729;1297;23368;-26
2022/08/30 01:16:12;;;;;;;4.40;2.90;;;;;;;;;;108650;1297;23047;-25
2022/08/30 01:18:38;;;;;;;2.90;1.50;;;;;;;;;;108752;1297;22515;-25
2022/08/30 01:21:07;;;;;;;4.40;2.20;;;;;;;;;;108734;1297;22527;-25
2022/08/30 01:23:33;;;;;;;5.10;2.70;;;;;;;;;;108722;1304;22452;-29
2022/08/30 01:25:59;;;;;;;3.80;1.90;;;;;;;;;;108742;1298;22428;-25
2022/08/30 01:28:25;;;;;;;5.50;2.70;;;;;;;;;;108304;1304;22562;-28
2022/08/30 01:30:50;;;;;;;3.90;2.50;;;;;;;;;;108708;1297;22181;-26
2022/08/30 01:33:17;;;;;;;4.30;2.80;;;;;;;;;;108748;1297;23209;-25
2022/08/30 01:35:46;;;;;;;3.80;2.70;;;;;;;;;;108729;1297;22815;-28
2022/08/30 01:38:12;;;;;;;3.80;3.10;;;;;;;;;;108746;1304;22794;-28
2022/08/30 01:40:37;;;;;;;4.70;2.90;;;;;;;;;;108747;1297;22543;-28
2022/08/30 01:43:03;;;;;;;3.60;2.00;;;;;;;;;;108762;1297;22057;-24
2022/08/30 01:45:29;;;;;;;8.60;3.50;;;;;;;;;;108509;1297;23241;-26
2022/08/30 01:47:54;;;;;;;6.00;3.30;;;;;;;;;;108733;1304;22581;-30
2022/08/30 01:50:21;;;;;;;3.40;2.50;;;;;;;;;;108750;1297;22420;-30
2022/08/30 01:52:46;;;;;;;3.60;2.70;;;;;;;;;;108740;1297;22395;-30
2022/08/30 01:55:12;;;;;;;4.70;3.20;;;;;;;;;;108674;1298;23259;-29
2022/08/30 01:57:37;;;;;;;5.00;3.00;;;;;;;;;;108729;1297;22935;-25
2022/08/30 02:00:07;;;;;;;3.30;2.50;;;;;;;;;;108730;1304;22730;-25
2022/08/30 02:02:33;;;;;;;4.80;3.20;;;;;;;;;;108716;1289;22509;-25
2022/08/30 02:04:59;;;;;;;3.50;3.00;;;;;;;;;;108721;1297;23121;-25
2022/08/30 02:07:24;;;;;;;4.90;3.80;;;;;;;;;;108733;1297;23176;-29
2022/08/30 02:09:50;;;;;;;5.50;3.30;;;;;;;;;;108743;1297;23196;-29
2022/08/30 02:12:15;;;;;;;5.90;4.60;;;;;;;;;;108759;1297;23060;-29
2022/08/30 02:14:41;;;;;;;5.30;3.90;;;;;;;;;;108714;1297;22548;-24
2022/08/30 02:17:07;;;;;;;6.00;3.50;;;;;;;;;;108759;1296;23270;-25
2022/08/30 02:19:32;;;;;;;7.60;3.60;;;;;;;;;;108713;1304;22560;-25
2022/08/30 02:21:58;;;;;;;6.20;3.90;;;;;;;;;;108748;1297;22539;-29
2022/08/30 02:24:23;;;;;;;5.40;3.60;;;;;;;;;;107800;1297;1002928;-25
2022/08/30 02:26:51;;;;;;;11.60;4.70;;;;;;;;;;108744;1297;23835;-29
2022/08/30 02:29:16;;;;;;;5.90;3.40;;;;;;;;;;108749;1283;22420;-28
2022/08/30 02:31:42;;;;;;;4.60;3.40;;;;;;;;;;108732;1297;22210;-25
2022/08/30 02:34:07;;;;;;;6.70;4.90;;;;;;;;;;108718;1297;23233;-26
2022/08/30 02:36:33;;;;;;;6.70;3.50;;;;;;;;;;108758;1297;23375;-29
2022/08/30 02:38:58;;;;;;;9.70;4.00;;;;;;;;;;108751;1297;22413;-25
2022/08/30 02:41:24;;;;;;;8.10;5.00;;;;;;;;;;108739;1297;22543;-29
2022/08/30 02:43:50;;;;;;;5.20;4.20;;;;;;;;;;108779;1297;22405;-25
2022/08/30 02:46:16;;;;;;;6.70;4.60;;;;;;;;;;108757;1297;22390;-25
2022/08/30 02:48:42;;;;;;;9.60;4.00;;;;;;;;;;108527;1297;25225;-24
2022/08/30 02:51:09;;;;;;;7.60;4.60;;;;;;;;;;107265;1298;23213;-28
2022/08/30 02:53:35;;;;;;;6.30;4.50;;;;;;;;;;108739;1297;22456;-29
2022/08/30 02:56:00;;;;;;;5.20;3.90;;;;;;;;;;108740;1297;23226;-29
2022/08/30 02:58:26;;;;;;;4.00;3.10;;;;;;;;;;108750;1297;23298;-28
2022/08/30 03:00:51;;;;;;;5.50;3.50;;;;;;;;;;108705;1304;22390;-29
2022/08/30 03:03:17;;;;;;;5.10;3.10;;;;;;;;;;108707;1297;22467;-25
2022/08/30 03:05:42;;;;;;;4.20;2.80;;;;;;;;;;108732;1297;22547;-29
2022/08/30 03:08:08;;;;;;;3.80;3.10;;;;;;;;;;108423;1297;23174;-28
2022/08/30 03:10:33;;;;;;;7.00;3.80;;;;;;;;;;108752;1297;22942;-29
2022/08/30 03:12:59;;;;;;;5.70;3.90;;;;;;;;;;108751;1304;22414;-28
2022/08/30 03:15:25;;;;;;;5.50;2.90;;;;;;;;;;108729;1297;23297;-29
2022/08/30 03:17:51;;;;;;;4.70;3.20;;;;;;;;;;108737;1297;22518;-25
2022/08/30 03:20:17;;;;;;;5.10;3.50;;;;;;;;;;108732;1297;22456;-25
2022/08/30 03:22:43;;;;;;;12.30;3.60;;;;;;;;;;108748;1304;22566;-24
2022/08/30 03:25:08;;;;;;;7.00;4.30;;;;;;;;;;108641;1297;24013;-25
2022/08/30 03:27:34;;;;;;;4.20;3.40;;;;;;;;;;108556;1298;23265;-28
2022/08/30 03:29:59;;;;;;;5.20;3.50;;;;;;;;;;108523;1304;22416;-30
2022/08/30 03:32:25;;;;;;;8.50;3.80;;;;;;;;;;108001;1297;1002978;-28
2022/08/30 03:34:50;;;;;;;9.50;4.80;;;;;;;;;;108710;1297;23350;-25
2022/08/30 03:37:16;;;;;;;7.00;3.50;;;;;;;;;;108735;1304;22454;-28
2022/08/30 03:39:41;;;;;;;6.90;3.30;;;;;;;;;;108768;1298;23002;-24
2022/08/30 03:42:07;;;;;;;4.40;3.80;;;;;;;;;;108742;1297;22415;-28
2022/08/30 03:44:32;;;;;;;8.00;3.70;;;;;;;;;;108766;1297;22411;-25
2022/08/30 03:46:58;;;;;;;5.20;3.80;;;;;;;;;;108739;1289;22507;-25
2022/08/30 03:49:23;;;;;;;6.10;4.30;;;;;;;;;;108713;1297;22491;-28
2022/08/30 03:51:49;;;;;;;7.30;3.30;;;;;;;;;;108575;1305;23030;-30
2022/08/30 03:54:14;;;;;;;5.90;3.80;;;;;;;;;;108726;1297;22513;-24
2022/08/30 03:56:40;;;;;;;9.90;4.70;;;;;;;;;;108748;1297;22611;-28
2022/08/30 03:59:05;;;;;;;6.50;3.30;;;;;;;;;;108732;1298;22569;-25
2022/08/30 04:01:31;;;;;;;6.30;3.80;;;;;;;;;;108764;1296;22389;-24
2022/08/30 04:03:56;;;;;;;5.70;3.90;;;;;;;;;;108761;1297;23076;-25
2022/08/30 04:06:22;;;;;;;4.10;3.50;;;;;;;;;;108747;1297;22555;-24
2022/08/30 04:08:47;;;;;;;7.90;5.30;;;;;;;;;;108698;1297;22992;-28
2022/08/30 04:11:15;;;;;;;5.30;3.80;;;;;;;;;;108750;1297;22439;-24
2022/08/30 04:13:41;;;;;;;6.70;4.00;;;;;;;;;;108743;1298;23137;-26
2022/08/30 04:16:06;;;;;;;6.80;4.00;;;;;;;;;;108559;1297;22528;-26
2022/08/30 04:18:33;;;;;;;8.70;5.00;;;;;;;;;;108715;1296;23246;-25
2022/08/30 04:20:58;;;;;;;8.10;5.30;;;;;;;;;;108734;1297;22534;-24
2022/08/30 04:23:24;;;;;;;5.00;3.90;;;;;;;;;;108609;1304;22651;-24
2022/08/30 04:25:49;;;;;;;17.90;4.00;;;;;;;;;;108682;1297;23301;-24
2022/08/30 04:28:15;;;;;;;10.40;4.30;;;;;;;;;;108704;1299;23244;-30
2022/08/30 04:30:41;;;;;;;13.60;4.00;;;;;;;;;;108612;1298;22406;-30
2022/08/30 04:33:06;;;;;;;12.90;4.60;;;;;;;;;;108657;1296;22554;-30
2022/08/30 04:35:32;;;;;;;4.90;3.50;;;;;;;;;;108413;1298;23250;-26
2022/08/30 04:37:58;;;;;;;6.30;4.10;;;;;;;;;;108447;1299;23337;-30
2022/08/30 04:40:23;;;;;;;8.20;4.80;;;;;;;;;;108476;1297;25273;-30
2022/08/30 04:42:52;;;;;;;14.10;3.80;;;;;;;;;;108489;1297;25251;-30
2022/08/30 04:45:19;;;;;;;4.60;3.70;;;;;;;;;;108700;1297;25251;-30
2022/08/30 04:47:45;;;;;;;4.00;3.50;;;;;;;;;;108666;1299;22827;-27
2022/08/30 04:50:11;;;;;;;11.00;4.60;;;;;;;;;;108665;1296;22535;-24
2022/08/30 04:52:37;;;;;;;8.50;3.90;;;;;;;;;;108486;1304;22592;-24
2022/08/30 04:55:03;;;;;;;5.50;4.00;;;;;;;;;;108459;1299;22307;-30
2022/08/30 04:57:28;;;;;;;11.30;5.30;;;;;;;;;;108724;1298;22409;-30
2022/08/30 04:59:54;;;;;;;10.90;4.70;;;;;;;;;;108722;1297;23050;-26
2022/08/30 05:02:19;;;;;;;21.80;5.30;;;;;;;;;;108703;1297;22513;-30
2022/08/30 05:07:14;;;;;;;7.90;4.70;;;;;;;;;;108702;1302;23016;-30
2022/08/30 05:09:40;;;;;;;7.10;4.30;;;;;;;;;;108728;1297;23081;-30
2022/08/30 05:12:05;;;;;;;6.10;4.60;;;;;;;;;;108714;1297;22550;-26
2022/08/30 05:14:32;;;;;;;4.20;3.20;;;;;;;;;;108719;1298;22965;-26
2022/08/30 05:16:58;;;;;;;5.60;4.30;;;;;;;;;;108735;1297;22414;-25
2022/08/30 05:19:24;;;;;;;8.20;3.80;;;;;;;;;;108725;1298;23685;-26
2022/08/30 05:21:49;;;;;;;6.40;4.50;;;;;;;;;;108730;1297;22553;-26
2022/08/30 05:24:15;;;;;;;5.30;4.40;;;;;;;;;;108706;1304;22385;-30
2022/08/30 05:26:40;;;;;;;6.40;5.10;;;;;;;;;;108355;1297;23206;-28
2022/08/30 05:29:06;;;;;;;4.40;3.40;;;;;;;;;;108698;1297;22535;-28
2022/08/30 05:31:32;;;;;;;9.40;4.10;;;;;;;;;;108699;1299;23351;-28
2022/08/30 05:33:58;;;;;;;6.70;4.00;;;;;;;;;;108742;1298;23118;-25
2022/08/30 05:36:25;;;;;;;7.30;4.00;;;;;;;;;;108724;1297;22541;-28
2022/08/30 05:38:51;;;;;;;8.30;5.90;;;;;;;;;;108543;1298;22416;-25
2022/08/30 05:41:17;;;;;;;6.80;4.70;;;;;;;;;;108734;1297;23139;-24
2022/08/30 05:43:43;;;;;;;5.70;4.50;;;;;;;;;;108730;1298;22760;-28
2022/08/30 05:46:10;;;;;;;5.00;3.70;;;;;;;;;;108729;1289;22501;-28
2022/08/30 05:48:36;;;;;;;7.30;4.20;;;;;;;;;;108721;1298;22534;-28
2022/08/30 05:51:02;;;;;;;4.10;3.40;;;;;;;;;;108705;1297;23207;-25
2022/08/30 05:53:28;;;;;;;11.10;3.50;;;;;;;;;;108647;1304;22467;-28
2022/08/30 05:55:53;;;;;;;8.20;4.90;;;;;;;;;;108647;1304;22382;-25
2022/08/30 05:58:21;;;;;;;7.00;4.80;;;;;;;;;;108712;1297;23165;-29
2022/08/30 06:00:47;;;;;;;5.10;4.30;;;;;;;;;;108663;1304;22418;-29
2022/08/30 06:03:12;;;;;;;9.60;4.40;;;;;;;;;;108705;1297;23710;-25
2022/08/30 06:05:37;;;;;;;4.20;3.10;;;;;;;;;;108604;1304;22535;-29
2022/08/30 06:08:03;;;;;;;5.80;3.20;;;;;;;;;;108680;1298;22984;-29
2022/08/30 06:10:29;;;;;;;5.70;3.80;;;;;;;;;;108719;1297;22459;-29
2022/08/30 06:12:54;;;;;;;5.10;3.50;;;;;;;;;;108725;1304;23186;-25
2022/08/30 06:15:20;;;;;;;5.00;3.70;;;;;;;;;;108724;1297;22210;-29
2022/08/30 06:17:46;;;;;;;3.80;3.40;;;;;;;;;;108728;1298;23280;-29
2022/08/30 06:20:11;;;;;;;8.30;4.10;;;;;;;;;;108746;1297;22530;-29
2022/08/30 06:22:37;;;;;;;3.80;3.00;;;;;;;;;;108595;1304;22807;-26
2022/08/30 06:25:03;;;;;;;4.50;3.10;;;;;;;;;;108316;1297;25226;-29
2022/08/30 06:27:30;;;;;;;5.20;4.20;;;;;;;;;;108488;1304;23262;-29
2022/08/30 06:29:55;;;;;;;8.90;4.90;;;;;;;;;;108717;1298;23230;-24
2022/08/30 06:32:21;;;;;;;9.50;5.10;;;;;;;;;;108546;1301;22437;-29
2022/08/30 06:34:47;;;;;;;4.50;3.40;;;;;;;;;;108357;1304;25324;-29
2022/08/30 06:37:12;;;;;;;13.80;4.10;;;;;;;;;;108258;1291;22466;-26
2022/08/30 06:39:38;;;;;;;6.10;5.20;;;;;;;;;;108698;1297;23241;-26
2022/08/30 06:42:03;;;;;;;7.70;5.00;;;;;;;;;;108701;1298;23193;-24
2022/08/30 06:44:29;;;;;;;5.30;4.80;;;;;;;;;;108509;1305;23266;-31
2022/08/30 06:46:55;;;;;;;7.60;4.70;;;;;;;;;;108622;1299;22543;-30
2022/08/30 06:49:21;;;;;;;8.30;5.20;;;;;;;;;;107900;1297;22542;-31
2022/08/30 06:51:46;;;;;;;6.50;5.30;;;;;;;;;;108292;1284;23128;-30
2022/08/30 06:54:12;;;;;;;8.80;5.00;;;;;;;;;;108363;1297;22577;-26
2022/08/30 06:56:38;;;;;;;8.40;5.90;;;;;;;;;;108561;1299;23436;-26
2022/08/30 06:59:03;;;;;;;11.60;5.00;;;;;;;;;;108685;1298;22350;-30
2022/08/30 07:01:29;;;;;;;6.20;4.30;;;;;;;;;;108747;1298;23150;-28
2022/08/30 07:03:55;;;;;;;7.30;4.90;;;;;;;;;;108625;1304;25184;-26
2022/08/30 07:06:20;;;;;;;6.60;4.60;;;;;;;;;;108701;1304;22825;-30
2022/08/30 07:08:46;;;;;;;4.60;4.00;;;;;;;;;;108685;1298;23292;-30
2022/08/30 07:11:12;;;;;;;7.40;4.80;;;;;;;;;;108664;1299;22922;-26
2022/08/30 07:13:37;;;;;;;7.60;5.20;;;;;;;;;;108755;1298;23357;-26
2022/08/30 07:16:06;;;;;;;4.00;3.50;;;;;;;;;;108687;1297;23305;-26
2022/08/30 07:21:04;;;;;;;4.30;3.10;;;;;;;;;;108662;1301;23202;-29
2022/08/30 07:23:29;;;;;;;7.10;4.00;;;;;;;;;;108282;1298;642957;-27
2022/08/30 07:25:55;;;;;;;3.30;2.90;;;;;;;;;;108693;1298;22523;-29
2022/08/30 07:28:21;;;;;;;4.70;4.10;;;;;;;;;;108578;1289;22531;-26
2022/08/30 07:30:46;;;;;;;10.00;4.00;;;;;;;;;;108667;1302;23187;-29
2022/08/30 07:33:12;;;;;;;4.60;3.40;;;;;;;;;;108712;1299;25059;-29
2022/08/30 07:35:37;;;;;;;5.00;4.10;;;;;;;;;;108547;1298;22887;-30
2022/08/30 07:38:03;;;;;;;7.40;5.10;;;;;;;;;;107978;1299;23283;-27
2022/08/30 07:40:28;;;;;;;4.30;3.60;;;;;;;;;;108637;1305;22579;-27
2022/08/30 07:42:54;;;;;;;6.60;3.80;;;;;;;;;;108484;1286;22449;-30
2022/08/30 07:45:20;;;;;;;9.00;4.40;;;;;;;;;;107918;1282;25193;-30
2022/08/30 07:47:46;;;;;;;4.80;4.20;;;;;;;;;;108437;1298;23193;-27
2022/08/30 07:50:12;;;;;;;4.90;4.50;;;;;;;;;;107989;1297;23164;-28
2022/08/30 07:52:37;;;;;;;5.20;3.90;;;;;;;;;;107969;1283;22506;-30
2022/08/30 07:55:03;;;;;;;6.00;5.10;;;;;;;;;;108651;1298;22531;-24
2022/08/30 07:57:32;;;;;;;10.10;4.40;;;;;;;;;;108613;1299;23255;-28
2022/08/30 07:59:58;;;;;;;9.40;2.80;;;;;;;;;;108696;1298;22545;-24
2022/08/30 08:02:23;;;;;;;8.20;5.80;;;;;;;;;;108622;1297;22518;-24
2022/08/30 08:04:49;;;;;;;5.00;4.10;;;;;;;;;;108619;1298;23344;-24
2022/08/30 08:07:14;;;;;;;5.70;5.10;;;;;;;;;;108514;1298;23277;-28
2022/08/30 08:09:40;;;;;;;6.10;5.60;;;;;;;;;;108433;1304;22504;-28
2022/08/30 08:12:06;;;;;;;6.90;5.50;;;;;;;;;;108298;1304;23338;-28
2022/08/30 08:14:31;;;;;;;6.40;5.80;;;;;;;;;;108646;1297;23149;-30
2022/08/30 08:16:57;;;;;;;5.50;4.90;;;;;;;;;;108647;1283;23163;-30
2022/08/30 08:19:23;;;;;;;8.30;6.90;;;;;;;;;;108518;1283;22523;-26
2022/08/30 08:21:48;;;;;;;13.10;7.30;;;;;;;;;;108569;1299;22618;-26
2022/08/30 08:24:14;;;;;;;6.40;5.80;;;;;;;;;;108670;1299;23262;-26
2022/08/30 08:26:40;;;;;;;10.60;7.30;;;;;;;;;;108413;1297;22501;-30
2022/08/30 08:29:06;;;;;;;8.10;6.50;;;;;;;;;;108059;1305;22456;-30
2022/08/30 08:31:31;;;;;;;8.70;6.30;;;;;;;;;;108473;1299;25154;-30
2022/08/30 08:33:58;;;;;;;8.10;7.40;;;;;;;;;;108541;1298;22525;-30
2022/08/30 08:36:24;;;;;;;7.40;6.70;;;;;;;;;;108414;1298;22526;-30
2022/08/30 08:38:50;;;;;;;6.80;6.00;;;;;;;;;;108156;1297;22547;-30
2022/08/30 08:41:19;;;;;;;6.20;5.60;;;;;;;;;;107956;1299;23845;-30
2022/08/30 08:43:44;;;;;;;8.50;6.90;;;;;;;;;;107889;1289;25271;-26
2022/08/30 08:46:14;;;;;;;8.60;6.60;;;;;;;;;;107603;1299;22558;-29
2022/08/30 08:48:42;;;;;;;6.40;5.20;;;;;;;;;;108627;1298;22518;-25
2022/08/30 08:53:38;;;;;;;5.40;4.90;;;;;;;;;;108250;1299;23247;-28
2022/08/30 08:56:04;;;;;;;6.00;4.60;;;;;;;;;;108305;1304;23691;-25
2022/08/30 08:58:31;;;;;;;4.20;3.80;;;;;;;;;;108286;1297;23123;-24
2022/08/30 09:00:57;;;;;;;5.00;4.30;;;;;;;;;;108349;1299;22534;-28
2022/08/30 09:03:25;;;;;;;7.60;3.80;;;;;;;;;;108432;1298;23690;-28
2022/08/30 09:05:52;;;;;;;3.80;3.00;;;;;;;;;;107657;1304;22537;-24
2022/08/30 09:08:18;;;;;;;4.30;3.50;;;;;;;;;;108287;1299;23780;-24
2022/08/30 09:10:49;;;;;;;6.30;3.50;;;;;;;;;;108271;1299;23183;-24
2022/08/30 09:13:14;;;;;;;8.40;4.50;;;;;;;;;;107935;1283;23780;-28
2022/08/30 09:15:40;;;;;;;5.10;3.40;;;;;;;;;;108178;1284;23235;-28
2022/08/30 09:18:07;;;;;;;6.10;3.30;;;;;;;;;;108552;1299;23202;-24
2022/08/30 09:20:35;;;;;;;5.30;4.70;;;;;;;;;;108210;1298;23300;-28
2022/08/30 09:23:04;;;;;;;3.80;3.10;;;;;;;;;;107769;1298;25347;-28
2022/08/30 09:25:31;;;;;;;3.60;2.80;;;;;;;;;;108113;1289;22526;-24
2022/08/30 09:28:07;;;;;;;3.80;3.00;;;;;;;;;;108187;1304;22524;-24
2022/08/30 09:30:33;;;;;;;2.60;2.20;;;;;;;;;;108278;1304;22530;-28
2022/08/30 09:33:00;;;;;;;10.20;2.20;;;;;;;;;;107849;1299;23202;-28
2022/08/30 09:35:26;;;;;;;3.10;2.10;;;;;;;;;;107932;1299;23267;-28
2022/08/30 09:37:53;;;;;;;2.50;1.70;;;;;;;;;;108447;1297;23031;-24
2022/08/30 09:40:21;;;;;;;5.20;3.10;;;;;;;;;;107970;1298;25292;-28
2022/08/30 09:42:57;;;;;;;2.30;2.10;;;;;;;;;;108248;1298;22545;-24
2022/08/30 09:45:27;;;;;;;2.80;2.50;;;;;;;;;;108438;1297;25206;-24
2022/08/30 09:47:52;;;;;;;2.00;1.80;;;;;;;;;;108133;1283;23206;-24
2022/08/30 09:50:21;;;;;;;4.00;3.10;;;;;;;;;;108456;1299;23084;-27
2022/08/30 09:52:51;;;;;;;1.50;1.40;;;;;;;;;;108505;1304;23816;-28
2022/08/30 09:55:17;;;;;;;2.70;2.10;;;;;;;;;;108476;1297;22544;-28
2022/08/30 09:57:46;;;;;;;1.60;1.50;;;;;;;;;;108211;1304;23899;-28
2022/08/30 10:00:14;;;;;;;3.00;1.90;;;;;;;;;;108492;1304;22530;-28
2022/08/30 10:02:42;;;;;;;2.70;2.10;;;;;;;;;;108577;1297;23296;-24
2022/08/30 10:05:12;;;;;;;2.00;1.70;;;;;;;;;;108614;1298;22538;-28
2022/08/30 10:07:41;;;;;;;2.20;1.60;;;;;;;;;;108544;1298;23786;-28
2022/08/30 10:10:10;;;;;;;2.30;2.20;;;;;;;;;;108431;1297;22583;-24
2022/08/30 10:12:39;;;;;;;1.30;1.10;;;;;;;;;;108454;1297;22543;-24
2022/08/30 10:15:17;;;;;;;1.30;1.20;;;;;;;;;;108477;1298;22530;-29
2022/08/30 10:17:47;;;;;;;0.90;0.80;;;;;;;;;;108595;1297;22430;-25
2022/08/30 10:20:17;;;;;;;1.40;0.90;;;;;;;;;;108676;1304;22453;-28
2022/08/30 10:22:45;;;;;;;1.10;0.80;;;;;;;;;;108450;1304;23208;-29
2022/08/30 10:25:13;;;;;;;0.50;0.50;;;;;;;;;;108497;1304;22435;-28
2022/08/30 10:27:41;;;;;;;9.00;1.60;;;;;;;;;;108632;1297;23351;-25
2022/08/30 10:30:09;;;;;;;2.00;1.50;;;;;;;;;;108674;1283;23307;-25
2022/08/30 10:32:54;;;;;;;2.00;1.00;;;;;;;;;;108631;1297;23182;-29
2022/08/30 10:35:22;;;;;;;1.30;1.10;;;;;;;;;;108675;1297;22534;-25
2022/08/30 10:37:50;;;;;;;4.90;0.90;;;;;;;;;;108632;1298;23278;-29
2022/08/30 10:42:48;;;;;;;2.00;1.30;;;;;;;;;;108585;1289;22574;-25
2022/08/30 10:45:14;;;;;;;1.30;1.00;;;;;;;;;;108495;1304;22380;-29
2022/08/30 10:47:43;;;;;;;0.80;0.70;;;;;;;;;;108663;1297;23206;-25
2022/08/30 10:50:11;;;;;;;1.30;1.00;;;;;;;;;;108593;1297;23777;-29
2022/08/30 10:52:39;;;;;;;1.30;0.80;;;;;;;;;;108598;1297;25280;-29
2022/08/30 10:55:14;;;;;;;1.00;0.70;;;;;;;;;;108677;1297;23889;-25
2022/08/30 10:57:40;;;;;;;1.00;0.90;;;;;;;;;;108692;1304;23134;-26
2022/08/30 11:00:09;;;;;;;2.20;0.80;;;;;;;;;;108677;1297;22901;-25
2022/08/30 11:02:38;;;;;;;1.90;1.30;;;;;;;;;;108415;1297;23264;-29
2022/08/30 11:05:07;;;;;;;2.00;1.00;;;;;;;;;;108616;1297;23245;-25
2022/08/30 11:07:36;;;;;;;1.30;0.90;;;;;;;;;;108706;1289;23191;-29
2022/08/30 11:10:07;;;;;;;1.10;0.80;;;;;;;;;;108057;1298;22533;-25
2022/08/30 11:12:34;;;;;;;0.90;0.90;;;;;;;;;;107663;1298;22910;-28
2022/08/30 11:15:10;;;;;;;1.90;0.90;;;;;;;;;;108120;1304;23390;-24
2022/08/30 11:17:39;;;;;;;1.90;1.20;;;;;;;;;;108728;1297;23178;-25
2022/08/30 11:20:05;;;;;;;1.40;0.80;;;;;;;;;;108723;1297;23298;-29
2022/08/30 11:22:32;;;;;;;0.80;0.50;;;;;;;;;;108643;1281;22543;-29
2022/08/30 11:24:58;;;;;;;2.00;0.90;;;;;;;;;;108573;1297;22539;-24
2022/08/30 11:27:29;;;;;;;0.60;0.60;;;;;;;;;;108736;1297;23061;-25
2022/08/30 11:29:54;;;;;;;1.60;0.70;;;;;;;;;;108720;1297;23320;-24
2022/08/30 11:32:21;;;;;;;3.10;1.40;;;;;;;;;;108684;1298;22619;-24
2022/08/30 11:34:47;;;;;;;0.70;0.70;;;;;;;;;;108552;1298;23041;-24
2022/08/30 11:37:16;;;;;;;0.90;0.80;;;;;;;;;;108719;1297;24257;-28
2022/08/30 11:39:47;;;;;;;0.90;0.70;;;;;;;;;;108713;1297;23652;-25
2022/08/30 11:42:23;;;;;;;0.80;0.70;;;;;;;;;;108738;1297;22383;-28
2022/08/30 11:44:49;;;;;;;0.80;0.70;;;;;;;;;;108685;1296;23159;-24
2022/08/30 11:47:18;;;;;;;1.80;0.90;;;;;;;;;;108717;1302;23366;-25
2022/08/30 11:49:47;;;;;;;1.30;0.80;;;;;;;;;;108705;1297;23172;-28
2022/08/30 11:52:14;;;;;;;1.10;0.60;;;;;;;;;;108656;1292;23234;-24
2022/08/30 11:54:41;;;;;;;0.80;0.70;;;;;;;;;;108565;1297;22776;-25
2022/08/30 11:57:08;;;;;;;0.60;0.60;;;;;;;;;;108454;1297;23097;-28
2022/08/30 11:59:35;;;;;;;1.60;0.80;;;;;;;;;;108712;1297;22575;-25
2022/08/30 12:02:00;;;;;;;0.60;0.40;;;;;;;;;;108701;1297;22714;-29
2022/08/30 12:04:27;;;;;;;1.30;0.80;;;;;;;;;;108717;1297;23755;-25
2022/08/30 12:06:55;;;;;;;1.10;0.70;;;;;;;;;;108695;1297;22531;-28
2022/08/30 12:09:41;;;;;;;0.60;0.40;;;;;;;;;;108702;1297;23154;-29
2022/08/30 12:12:08;;;;;;;0.60;0.60;;;;;;;;;;108704;1282;23258;-25
2022/08/30 12:14:36;;;;;;;2.10;0.70;;;;;;;;;;108744;1297;22833;-28
2022/08/30 12:19:31;;;;;;;1.00;0.80;;;;;;;;;;108453;1297;23257;-25
2022/08/30 12:21:58;;;;;;;0.60;0.50;;;;;;;;;;108750;1297;22842;-25
2022/08/30 12:24:25;;;;;;;2.90;0.70;;;;;;;;;;108707;1297;22671;-24
2022/08/30 12:26:51;;;;;;;0.40;0.40;;;;;;;;;;108484;1298;22620;-28
2022/08/30 12:29:17;;;;;;;1.00;0.20;;;;;;;;;;108465;1304;22338;-28
2022/08/30 12:31:45;;;;;;;0.70;0.30;;;;;;;;;;108694;1299;23055;-24
2022/08/30 12:34:14;;;;;;;1.00;0.30;;;;;;;;;;108666;1299;23262;-24
2022/08/30 12:36:47;;;;;;;0.50;0.40;;;;;;;;;;108616;1304;23609;-24
2022/08/30 12:39:12;;;;;;;;;;;;;;;;;;108745;1297;22680;-28
2022/08/30 12:41:39;;;;;;;0.30;0.30;;;;;;;;;;108735;1297;23293;-24
2022/08/30 12:44:07;;;;;;;0.50;0.40;;;;;;;;;;108747;1297;22556;-28
2022/08/30 12:46:32;;;;;;;0.40;0.30;;;;;;;;;;108728;1297;22535;-24
2022/08/30 12:48:58;;;;;;;0.30;0.30;;;;;;;;;;108661;1297;22519;-24
2022/08/30 12:51:25;;;;;;;0.20;0.20;;;;;;;;;;108525;1298;23217;-29
2022/08/30 12:53:51;;;;;;;0.60;0.40;;;;;;;;;;108707;1297;22420;-25
2022/08/30 12:56:17;;;;;;;1.10;0.40;;;;;;;;;;108715;1297;23187;-25
2022/08/30 12:58:44;;;;;;;0.60;0.30;;;;;;;;;;107682;1297;23264;-25
2022/08/30 13:01:11;;;;;;;1.90;0.50;;;;;;;;;;108687;1304;22512;-28
2022/08/30 13:03:36;;;;;;;0.60;0.40;;;;;;;;;;108735;1304;22475;-29
2022/08/30 13:06:02;;;;;;;1.00;0.40;;;;;;;;;;108732;1297;23175;-25
2022/08/30 13:11:00;;;;;;;;;;;;;;;;;;108114;1297;22498;-31
2022/08/30 13:13:27;;;;;;;2.00;1.00;;;;;;;;;;107694;1282;24376;-31
2022/08/30 13:15:53;;;;;;;0.80;0.40;;;;;;;;;;108497;1304;24533;-24
2022/08/30 13:18:26;;;;;;;2.40;0.50;;;;;;;;;;108434;1297;23156;-31
2022/08/30 13:20:51;;;;;;;0.70;0.50;;;;;;;;;;108347;1297;23208;-29
2022/08/30 13:23:20;;;;;;;0.70;0.60;;;;;;;;;;108320;1297;23350;-25
2022/08/30 13:25:46;;;;;;;0.90;0.70;;;;;;;;;;108414;1297;23270;-25
2022/08/30 13:28:11;;;;;;;2.10;0.90;;;;;;;;;;108719;1297;22308;-28
2022/08/30 13:30:37;;;;;;;2.10;0.80;;;;;;;;;;108657;1298;23039;-27
2022/08/30 13:33:02;;;;;;;0.80;0.60;;;;;;;;;;108337;1297;22546;-25
2022/08/30 13:35:28;;;;;;;1.00;0.90;;;;;;;;;;108497;1298;23490;-28
2022/08/30 13:37:55;;;;;;;0.70;0.60;;;;;;;;;;108580;1297;23089;-24
2022/08/30 13:40:21;;;;;;;0.80;0.70;;;;;;;;;;108675;1282;23278;-24
2022/08/30 13:42:47;;;;;;;10.90;0.60;;;;;;;;;;108727;1297;23313;-24
2022/08/30 13:45:12;;;;;;;1.70;0.60;;;;;;;;;;108632;1297;22611;-24
2022/08/30 13:47:38;;;;;;;0.70;0.50;;;;;;;;;;108716;1297;23174;-25
2022/08/30 13:50:04;;;;;;;0.30;0.30;;;;;;;;;;108701;1297;22926;-24
2022/08/30 13:52:29;;;;;;;1.80;0.60;;;;;;;;;;107586;1304;25194;-27
2022/08/30 13:54:55;;;;;;;1.10;0.80;;;;;;;;;;108693;1299;23050;-27
2022/08/30 13:57:22;;;;;;;2.60;0.60;;;;;;;;;;108732;1298;22389;-27
2022/08/30 13:59:48;;;;;;;0.80;0.50;;;;;;;;;;108660;1297;23239;-23
2022/08/30 14:02:13;;;;;;;0.70;0.30;;;;;;;;;;108694;1297;23206;-23
2022/08/30 14:04:39;;;;;;;2.30;0.60;;;;;;;;;;108644;1304;22560;-23
2022/08/30 14:07:04;;;;;;;1.30;0.40;;;;;;;;;;108730;1297;23334;-23
2022/08/30 14:09:30;;;;;;;1.30;1.00;;;;;;;;;;108680;1297;22451;-27
2022/08/30 14:11:55;;;;;;;1.20;0.50;;;;;;;;;;108751;1297;23163;-27
2022/08/30 14:14:21;;;;;;;1.20;0.60;;;;;;;;;;108707;1297;23183;-25
2022/08/30 14:16:46;;;;;;;0.70;0.60;;;;;;;;;;108739;1297;22921;-29
2022/08/30 14:19:13;;;;;;;1.60;0.80;;;;;;;;;;108629;1304;22545;-25
2022/08/30 14:21:39;;;;;;;0.90;0.70;;;;;;;;;;108625;1297;23201;-29
2022/08/30 14:24:05;;;;;;;17.00;0.60;;;;;;;;;;108685;1297;23076;-25
2022/08/30 14:26:33;;;;;;;3.80;0.40;;;;;;;;;;108741;1297;22661;-25
2022/08/30 14:28:58;;;;;;;0.70;0.70;;;;;;;;;;108386;1298;22852;-27
2022/08/30 14:31:24;;;;;;;2.00;0.70;;;;;;;;;;108532;1298;22617;-27
2022/08/30 14:33:50;;;;;;;0.50;0.40;;;;;;;;;;108660;1304;22465;-27
2022/08/30 14:36:15;;;;;;;0.80;0.60;;;;;;;;;;108527;1298;22539;-24
2022/08/30 14:38:41;;;;;;;1.60;0.70;;;;;;;;;;108614;1297;23236;-29
2022/08/30 14:41:07;;;;;;;0.70;0.60;;;;;;;;;;108676;1298;22893;-27